This is the latest recevied weather packets stored in our database for station/object VE3VGJ. If no packets are shown the sender has not sent any weather packets the latest 10 day(s).
| Time | Temp. | Humidity | Pressure | Rain* | Wind** | Luminosity | Snow |
|---|---|---|---|---|---|---|---|
| 1777575791 | 10.56° C | 49% | 1010.8 hPa | 0 mm | - | 1140 W/m² | - |
| 1777575488 | 10.56° C | 50% | 1010.8 hPa | 0 mm | - | 1059 W/m² | - |
| 1777575183 | 11.11° C | 50% | 1011.2 hPa | 0 mm | - | 441 W/m² | - |
| 1777574879 | 10.56° C | 51% | 1010.7 hPa | 0 mm | - | 699 W/m² | - |
| 1777574577 | 10.56° C | 50% | 1010.8 hPa | 0 mm | - | 412 W/m² | - |
| 1777574273 | 10.56° C | 51% | 1010.9 hPa | 0 mm | - | 328 W/m² | - |
| 1777573968 | 11.11° C | 49% | 1010.8 hPa | 0 mm | - | 329 W/m² | - |
| 1777573663 | 11.67° C | 48% | 1010.6 hPa | 0 mm | - | 563 W/m² | - |
| 1777573360 | 11.11° C | 51% | 1010.7 hPa | 0 mm | - | 802 W/m² | - |
| 1777573055 | 10.56° C | 50% | 1010.8 hPa | 0 mm | - | 744 W/m² | - |
| 1777572753 | 10.56° C | 51% | 1010.8 hPa | 0 mm | - | 404 W/m² | - |
| 1777572447 | 11.11° C | 50% | 1010.7 hPa | 0 mm | - | 354 W/m² | - |
| 1777572144 | 11.11° C | 49% | 1010.8 hPa | 0 mm | - | 432 W/m² | - |
| 1777571839 | 11.11° C | 51% | 1010.8 hPa | 0 mm | - | 463 W/m² | - |
| 1777571535 | 10.56° C | 51% | 1010.8 hPa | 0 mm | - | 450 W/m² | - |
| 1777571232 | 10.56° C | 50% | 1010.8 hPa | 0 mm | - | 357 W/m² | - |
| 1777570928 | 10.56° C | 50% | 1010.8 hPa | 0 mm | - | 676 W/m² | - |
| 1777570624 | 10.56° C | 50% | 1010.8 hPa | 0 mm | - | 390 W/m² | - |
| 1777570321 | 11.11° C | 49% | 1010.8 hPa | 0 mm | - | 395 W/m² | - |
| 1777570016 | 10.56° C | 50% | 1010.8 hPa | 0 mm | - | 513 W/m² | - |
| 1777569712 | 10.56° C | 49% | 1010.6 hPa | 0 mm | - | 441 W/m² | - |
| 1777569408 | 10.56° C | 50% | 1010.7 hPa | 0 mm | - | 403 W/m² | - |
| 1777569105 | 11.11° C | 49% | 1010.4 hPa | 0 mm | - | 565 W/m² | - |
| 1777568802 | 10.56° C | 51% | 1010.7 hPa | 0 mm | - | 571 W/m² | - |
| 1777568499 | 10.56° C | 48% | 1010.6 hPa | 0 mm | - | 502 W/m² | - |
* Rain latest hour (hover to see other rain measurements)
** Current wind speed in m/s (hover to see current wind gust speed)